Kansas City, Missouri
Traffic Map
Current Weather Conditions
Kansas City, Missouri
Broken Clouds
Broken Clouds
-3°
Feels Like: -9°
Wind Chill: -9° Ceiling: 10000
Heat Index: -3° Visibility: 10mi
Dew Point: -17° Wind: 12mph
Humidity: 33% Direction: 350° (N)
Pressure: 30.3in Gusts: 22mph
Raw Report DataKMKC 041954Z 35010G19KT 10SM BKN100 M03/M17 A3030 RMK AO2 SLP269 T10281172
Traffic Incident Summary
Active as of:
Severity:
Category:
InformationThere was an issue retrieving the traffic information for this location. Please try a different location or try again shortly.
Advertisements
Track Severe Weather on mobile